Tiempo atmosférico en la estación meteorológica de Arganda Del Rey, Madrid (533 m.)

Fecha
DESCASC
Temp. máxima en grados centígrados (hora)
DESCASC
Temp. mínima en grados centígrados (hora)
DESCASC
Temp. media en grados centígrados
DESCASC
Racha de viento máxima en m/sg (hora)
DESCASC
Velocidad máxima media en intervalos de 10 minutos(hora)
DESCASC
Precipitaciones diarias en mm
DESCASC
Precipitaciones de 00:00 a 06:00 en mm
DESCASC
Precipitaciones de 06:00 a 12:00 en mm
DESCASC
Precipitaciones de 12:00 a 18:00 en mm
DESCASC
Precipitaciones de 18:00 a 24:00 en mm
DESCASC
17-08-2017 37.5 (18:40) 19.6 (07:40) 28.6 7.78 (01:50) 3.89 (16:20) 0 0 0 0 0
16-08-2017 36.5 (18:10) 16.3 (08:10) 26.4 8.61 (14:20) 5.83 (14:10) 0 0 0 0 0
15-08-2017 35.5 (15:50) 21.3 (00:00) 28.4 11.39 (00:10) 7.78 (00:20) 0 0 0 0 0
14-08-2017 36.9 (17:10) 19.7 (07:40) 28.3 11.39 (23:59) 7.78 (23:59) 0 0 0 0 0
13-08-2017 35.3 (17:30) 16.6 (00:00) 25.9 6.11 (23:59) 3.61 (15:30) 0 0 0 0 0
12-08-2017 34.3 (19:00) 14 (00:00) 24.1 8.89 (01:10) 5 (01:00) 0 0 0 0 0
11-08-2017 31.4 (18:20) 13.5 (00:00) 22.4 8.61 (00:10) 5 (00:10) 0 0 0 0 0
10-08-2017 29 (18:10) 11.5 (00:00) 20.3 11.11 (00:20) 6.11 (10:10) 0 0 0 0 0
09-08-2017 32.1 (16:30) 15 (00:00) 23.5 13.89 (21:50) 7.78 (19:40) 0 0 0 0 0
08-08-2017 31.4 (16:50) 17.2 (00:00) 24.3 9.17 (00:20) 6.39 (00:20) 0 0 0 0 0
07-08-2017 37.3 (17:30) 20.5 (00:00) 28.9 13.06 (16:50) 8.33 (18:30) 0 0 0 0 0
06-08-2017 37.6 (17:30) 21.6 (00:00) 29.6 9.72 (14:00) 6.39 (15:10) 0 0 0 0 0
05-08-2017 40 (17:40) 21.5 (00:00) 30.8 9.44 (17:10) 6.39 (19:10) 0 0 0 0 0
04-08-2017 39.7 (19:00) 19.2 (00:00) 29.5 6.39 (12:40) 2.78 (12:40) 0 0 0 0 0
03-08-2017 37.5 (18:30) 17.6 (00:00) 27.6 7.78 (17:30) 5 (18:30) 0 0 0 0 0
02-08-2017 35.8 (17:10) 16 (00:00) 25.9 7.22 (18:10) 5 (18:10) 0 0 0 0 0
01-08-2017 33.9 (17:50) 18.3 (00:00) 26.1 8.06 (14:40) 5 (14:20) 0 0 0 0 0
31-07-2017 35.7 (17:40) 17.1 (00:00) 26.4 10.83 (16:40) 6.67 (20:10) 0 0 0 0 0
30-07-2017 37.8 (16:40) 17.5 (00:00) 27.6 10.28 (14:20) 6.39 (15:40) 0 0 0 0 0
29-07-2017 38.1 (17:20) 16.4 (00:00) 27.2 11.11 (16:20) 5.83 (17:30) 0 0 0 0 0
28-07-2017 38.5 (17:20) 17.2 (00:00) 27.9 12.78 (16:00) 6.67 (17:10) 0 0 0 0 0
27-07-2017 38.2 (17:30) 18.4 (00:00) 28.3 8.61 (18:20) 5.28 (17:30) 0 0 0 0 0
26-07-2017 34.6 (18:50) 16.1 (00:00) 25.3 9.17 (00:10) 5.83 (00:10) 0 0 0 0 0
25-07-2017 33.5 (18:40) 16.8 (00:00) 25.1 11.11 (22:40) 6.94 (22:00) 0 0 0 0 0
24-07-2017 34.3 (16:50) 16.7 (00:00) 25.5 8.06 (20:50) 5 (20:50) 0 0 0 0 0
23-07-2017 34.6 (16:50) 15 (00:00) 24.8 10 (17:40) 6.11 (17:40) 0 0 0 0 0
22-07-2017 33.7 (18:20) 15.5 (00:00) 24.6 9.72 (15:50) 6.39 (15:20) 0 0 0 0 0
21-07-2017 32.2 (17:40) 17.2 (00:00) 24.7 13.33 (17:50) 6.67 (13:50) 0 0 0 0 0
20-07-2017 33.3 (19:20) 16.7 (00:00) 25 7.78 (17:00) 4.17 (14:10) 0 0 0 0 0
19-07-2017 33.2 (16:20) 22.1 (00:00) 27.7 11.94 (15:10) 7.78 (19:20) 0 0 0 0 0

Gráficas

Temp. máximas Temp. mínimas Temp. medias Precipitaciones Rachas de viento máximas Velocidades máximas media en intervalos de 10 minutos

Datos horarios

Fecha y hora oficial Temperatura (ºC) Velocidad del viento (km/h) Dirección del viento Racha (km/h) Dirección de racha Precipitación (mm) Presión (hPa) Tendencia (hPa) Humedad (%)
2017-08-17 23:00:00 26.6 3 Nordeste 4 Este 0 -- -- 37
2017-08-17 22:00:00 29.3 0 Calma 4 Sur 0 -- -- 32
2017-08-17 21:00:00 34.6 3 Sudoeste 10 Sudoeste 0 -- -- 26
2017-08-17 20:00:00 36.5 9 Sudoeste 21 Sudoeste 0 -- -- 21
2017-08-17 19:00:00 37 10 Sudoeste 20 Sudoeste 0 -- -- 22
2017-08-17 18:00:00 37.1 8 Oeste 22 Sudoeste 0 -- -- 21
2017-08-17 17:00:00 36.9 9 Sudoeste 24 Oeste 0 -- -- 21
2017-08-17 16:00:00 36.4 8 Noroeste 24 Sudoeste 0 -- -- 26
2017-08-17 15:00:00 35.2 12 Sudoeste 20 Sudoeste 0 -- -- 26
2017-08-17 14:00:00 34.1 10 Oeste 19 Sudoeste 0 -- -- 33
2017-08-17 13:00:00 32.2 5 Sur 14 Este 0 -- -- 39
2017-08-17 12:00:00 30.4 4 Sur 14 Este 0 -- -- 43
2017-08-17 11:00:00 28.3 5 Norte 12 Norte 0 -- -- 47
2017-08-17 10:00:00 25.8 8 Nordeste 12 Este 0 -- -- 48
2017-08-17 09:00:00 22.9 3 Este 9 Este 0 -- -- 54
2017-08-17 08:00:00 20 2 Nordeste 7 Este 0 -- -- 59
2017-08-17 07:00:00 20.3 4 Este 10 Este 0 -- -- 56
2017-08-17 06:00:00 21.4 7 Nordeste 17 Nordeste 0 -- -- 53
2017-08-17 05:00:00 22.4 5 Este 16 Este 0 -- -- 50
2017-08-17 04:00:00 24.5 2 Nordeste 15 Nordeste 0 -- -- 44
2017-08-17 03:00:00 25.6 6 Norte 23 Norte 0 -- -- 39
2017-08-17 02:00:00 26.6 13 Nordeste 28 Norte 0 -- -- 31
2017-08-17 01:00:00 25 4 Nordeste 9 Este 0 -- -- 31
2017-08-17 00:00:00 25.1 6 Este 16 Nordeste 0 -- -- 30
2017-08-16 23:00:00 25.1 0 Calma 3 Oeste 0 -- -- 33
2017-08-16 22:00:00 28.3 2 Sur 5 Oeste 0 -- -- 31
2017-08-16 21:00:00 33.5 0 Calma 8 Sudoeste 0 -- -- 22
2017-08-16 20:00:00 35.5 7 Sudoeste 14 Sudoeste 0 -- -- 17
2017-08-16 19:00:00 36.2 5 Sudeste 17 Sur 0 -- -- 16
2017-08-16 18:00:00 36.4 6 Sur 19 Sudoeste 0 -- -- 16
2017-08-16 17:00:00 35.6 4 Sur 21 Sudoeste 0 -- -- 15
2017-08-16 16:00:00 34.8 7 Oeste 22 Sudoeste 0 -- -- 17
2017-08-16 15:00:00 34.1 8 Sur 31 Sudoeste 0 -- -- 19
2017-08-16 14:00:00 33.4 17 Sudoeste 26 Sudoeste 0 -- -- 20
2017-08-16 13:00:00 32.1 5 Sudeste 13 Sur 0 -- -- 23
2017-08-16 12:00:00 29.1 5 Oeste 14 Sudoeste 0 -- -- 30
2017-08-16 11:00:00 26.9 3 Sudeste 9 Este 0 -- -- 32
2017-08-16 10:00:00 24 5 Este 9 Este 0 -- -- 37
2017-08-16 09:00:00 19.3 4 Nordeste 7 Norte 0 -- -- 48
2017-08-16 08:00:00 16.5 0 Calma 8 Nordeste 0 -- -- 56
2017-08-16 07:00:00 16.8 5 Nordeste 8 Nordeste 0 -- -- 56
2017-08-16 06:00:00 16.8 0 Calma 3 Oeste 0 -- -- 60
2017-08-16 05:00:00 17.6 4 Oeste 7 Oeste 0 -- -- 52
2017-08-16 04:00:00 19.1 0 Calma 3 Oeste 0 -- -- 49
2017-08-16 03:00:00 20.3 3 Sur 5 Sudoeste 0 -- -- 48
2017-08-16 02:00:00 22.4 0 Calma 6 Oeste 0 -- -- 39
2017-08-16 01:00:00 25.2 6 Nordeste 11 Este 0 -- -- 32
2017-08-16 00:00:00 25.6 2 Oeste 10 Sudeste 0 -- -- 30
2017-08-15 23:00:00 27.7 3 Sur 22 Sudoeste 0 -- -- 28
2017-08-15 22:00:00 29.7 14 Oeste 22 Oeste 0 -- -- 25
2017-08-15 21:00:00 31.4 12 Sudoeste 27 Sudoeste 0 -- -- 25
2017-08-15 20:00:00 34.4 18 Sudoeste 35 Oeste 0 -- -- 21
2017-08-15 19:00:00 35.1 19 Oeste 33 Oeste 0 -- -- 19
2017-08-15 18:00:00 34.6 21 Oeste 32 Oeste 0 -- -- 21
2017-08-15 17:00:00 34.9 17 Oeste 30 Oeste 0 -- -- 21
2017-08-15 16:00:00 35.3 20 Oeste 37 Oeste 0 -- -- 23
2017-08-15 15:00:00 34.9 15 Sudoeste 30 Sudoeste 0 -- -- 26
2017-08-15 14:00:00 33.1 8 Sudoeste 17 Oeste 0 -- -- 33
2017-08-15 13:00:00 31.4 8 Oeste 17 Sudoeste 0 -- -- 37
2017-08-15 12:00:00 29.5 6 Sudoeste 13 Este 0 -- -- 40
2017-08-15 11:00:00 27.7 4 Sur 12 Este 0 -- -- 44
2017-08-15 10:00:00 25.6 7 Nordeste 12 Nordeste 0 -- -- 47
2017-08-15 09:00:00 23.6 5 Nordeste 9 Nordeste 0 -- -- 50
2017-08-15 08:00:00 21.5 5 Nordeste 11 Nordeste 0 -- -- 55
2017-08-15 07:00:00 21.8 6 Este 16 Este 0 -- -- 54
2017-08-15 06:00:00 22.7 9 Sudeste 15 Este 0 -- -- 56
2017-08-15 05:00:00 23.4 0 Calma 12 Nordeste 0 -- -- 57
2017-08-15 04:00:00 24.7 10 Sudeste 24 Nordeste 0 -- -- 55
2017-08-15 03:00:00 25.8 8 Nordeste 18 Sudeste 0 -- -- 50
2017-08-15 02:00:00 26.9 3 Este 20 Oeste 0 -- -- 46
2017-08-15 01:00:00 27.9 16 Sudeste 41 Este 0 -- -- 43
2017-08-15 00:00:00 29.2 28 Sudeste 41 Sudeste 0 -- -- 41
2017-08-14 23:00:00 30.6 14 Sudeste 23 Sudeste 0 -- -- 27
2017-08-14 22:00:00 31.2 15 Sudeste 21 Sudeste 0 -- -- 27
2017-08-14 21:00:00 33 12 Sudeste 26 Sudeste 0 -- -- 24
2017-08-14 20:00:00 35.8 9 Sur 22 Sur 0 -- -- 21
2017-08-14 19:00:00 36.5 14 Sur 23 Sur 0 -- -- 20
2017-08-14 18:00:00 36.8 11 Sur 26 Sudoeste 0 -- -- 20
2017-08-14 17:00:00 36.8 8 Sur 26 Sudeste 0 -- -- 22
2017-08-14 16:00:00 35.8 14 Sur 30 Sudeste 0 -- -- 25
2017-08-14 15:00:00 34.9 14 Sudeste 28 Sudeste 0 -- -- 27
2017-08-14 14:00:00 33.2 14 Sur 25 Sur 0 -- -- 31
2017-08-14 13:00:00 31.5 12 Sudeste 25 Este 0 -- -- 33
2017-08-14 12:00:00 29.1 6 Este 20 Este 0 -- -- 37
2017-08-14 11:00:00 26.9 6 Este 19 Este 0 -- -- 41
2017-08-14 10:00:00 24.9 8 Este 16 Este 0 -- -- 46
2017-08-14 09:00:00 22.5 2 Nordeste 12 Este 0 -- -- 56
2017-08-14 08:00:00 20.3 5 Nordeste 12 Sudeste 0 -- -- 61
2017-08-14 07:00:00 20.8 4 Este 15 Este 0 -- -- 58
2017-08-14 06:00:00 21.1 6 Nordeste 12 Nordeste 0 -- -- 59
2017-08-14 05:00:00 22.3 9 Nordeste 14 Este 0 -- -- 57
2017-08-14 04:00:00 23.5 6 Sudeste 15 Sudeste 0 -- -- 54
2017-08-14 03:00:00 24.6 4 Sudoeste 29 Sudeste 0 -- -- 49
2017-08-14 02:00:00 25.8 21 Sudeste 40 Sudeste 0 -- -- 42
2017-08-14 01:00:00 26.7 19 Sudeste 30 Sudeste 0 -- -- 37
2017-08-14 00:00:00 25 13 Sudeste 22 Sudeste 0 -- -- 38
2017-08-13 23:00:00 24.4 3 Este 6 Nordeste 0 -- -- 37
2017-08-13 22:00:00 27.2 2 Este 6 Sudeste 0 -- -- 32
2017-08-13 21:00:00 33 0 Calma 5 Norte 0 -- -- 25
2017-08-13 20:00:00 34.5 4 Noroeste 16 Oeste 0 -- -- 19
2017-08-13 19:00:00 34.9 11 Sudoeste 20 Sudoeste 0 -- -- 19
2017-08-13 18:00:00 34.9 10 Oeste 19 Oeste 0 -- -- 20
2017-08-13 17:00:00 34.9 6 Oeste 20 Sudoeste 0 -- -- 21
2017-08-13 16:00:00 34.4 7 Noroeste 19 Oeste 0 -- -- 20
2017-08-13 15:00:00 33.6 6 Noroeste 20 Este 0 -- -- 26
2017-08-13 14:00:00 32.3 4 Sudeste 19 Sudeste 0 -- -- 29
2017-08-13 13:00:00 30.8 6 Este 18 Este 0 -- -- 34
2017-08-13 12:00:00 28.8 9 Sudeste 14 Sudeste 0 -- -- 36
2017-08-13 11:00:00 26.1 6 Nordeste 12 Nordeste 0 -- -- 40
2017-08-13 10:00:00 23.6 7 Este 12 Este 0 -- -- 46
2017-08-13 09:00:00 20.8 2 Sudeste 6 Sudeste 0 -- -- 44
2017-08-13 08:00:00 16.6 2 Sur 8 Este 0 -- -- 49
2017-08-13 07:00:00 18 4 Nordeste 10 Nordeste 0 -- -- 45
2017-08-13 06:00:00 17.3 4 Nordeste 6 Nordeste 0 -- -- 56
2017-08-13 05:00:00 18.4 2 Norte 8 Este 0 -- -- 47
2017-08-13 04:00:00 20.2 2 Norte 10 Noroeste 0 -- -- 42
2017-08-13 03:00:00 19.8 6 Este 10 Nordeste 0 -- -- 34
2017-08-13 02:00:00 20.6 9 Nordeste 20 Este 0 -- -- 28
2017-08-13 01:00:00 19.8 7 Nordeste 13 Nordeste 0 -- -- 29
2017-08-13 00:00:00 19.8 5 Nordeste 6 Nordeste 0 -- -- 33
2017-08-12 23:00:00 22.4 3 Norte 5 Norte 0 -- -- 32
2017-08-12 22:00:00 25.5 0 Calma 8 Sudoeste 0 -- -- 27
2017-08-12 21:00:00 30.3 7 Sudoeste 12 Sudoeste 0 -- -- 19
2017-08-12 20:00:00 33.8 4 Sudoeste 9 Sudeste 0 -- -- 14
2017-08-12 19:00:00 34.3 3 Noroeste 16 Norte 0 -- -- 14
2017-08-12 18:00:00 33.5 5 Norte 19 Nordeste 0 -- -- 15
2017-08-12 17:00:00 33.5 5 Noroeste 23 Oeste 0 -- -- 16
2017-08-12 16:00:00 32.6 8 Noroeste 18 Sudoeste 0 -- -- 18
2017-08-12 15:00:00 31.1 7 Nordeste 14 Noroeste 0 -- -- 20
2017-08-12 14:00:00 29.7 6 Noroeste 16 Noroeste 0 -- -- 25
2017-08-12 13:00:00 28 8 Norte 17 Norte 0 -- -- 31
2017-08-12 12:00:00 26.2 5 Nordeste 12 Este 0 -- -- 40
2017-08-12 11:00:00 23.3 4 Oeste 11 Norte 0 -- -- 38
2017-08-12 10:00:00 20.9 4 Norte 12 Nordeste 0 -- -- 39
2017-08-12 09:00:00 18.3 5 Nordeste 9 Este 0 -- -- 43
2017-08-12 08:00:00 15.2 5 Nordeste 11 Nordeste 0 -- -- 51
2017-08-12 07:00:00 14.7 2 Sudeste 8 Este 0 -- -- 52
2017-08-12 06:00:00 17.1 5 Nordeste 13 Nordeste 0 -- -- 45
2017-08-12 05:00:00 18 6 Nordeste 14 Nordeste 0 -- -- 43
2017-08-12 04:00:00 19 8 Norte 16 Nordeste 0 -- -- 40
2017-08-12 03:00:00 20 10 Nordeste 24 Nordeste 0 -- -- 37
2017-08-12 02:00:00 21 14 Nordeste 32 Nordeste 0 -- -- 35
2017-08-12 01:00:00 22.3 18 Nordeste 31 Nordeste 0 -- -- 30
2017-08-12 00:00:00 24 16 Norte 24 Norte 0 -- -- 21
2017-08-11 23:00:00 25 11 Norte 23 Norte 0 -- -- 19
2017-08-11 22:00:00 23.9 8 Nordeste 17 Norte 0 -- -- 24
2017-08-11 21:00:00 29.9 2 Noroeste 6 Noroeste 0 -- -- 17
2017-08-11 20:00:00 30.8 5 Noroeste 13 Norte 0 -- -- 16
2017-08-11 19:00:00 31.3 7 Noroeste 18 Norte 0 -- -- 17
2017-08-11 18:00:00 31.3 10 Noroeste 20 Norte 0 -- -- 17
2017-08-11 17:00:00 31 10 Norte 18 Norte 0 -- -- 18
2017-08-11 16:00:00 29.3 5 Oeste 17 Sur 0 -- -- 18
2017-08-11 15:00:00 27.9 8 Noroeste 17 Noroeste 0 -- -- 20
2017-08-11 14:00:00 26.3 5 Sudeste 17 Este 0 -- -- 23
2017-08-11 13:00:00 24.4 6 Norte 15 Nordeste 0 -- -- 27
2017-08-11 12:00:00 21.7 5 Noroeste 12 Norte 0 -- -- 32
2017-08-11 11:00:00 19.1 5 Nordeste 18 Norte 0 -- -- 38
2017-08-11 10:00:00 17.3 9 Norte 19 Norte 0 -- -- 44
2017-08-11 09:00:00 13.8 3 Nordeste 9 Norte 0 -- -- 58
2017-08-11 08:00:00 13.5 7 Norte 11 Norte 0 -- -- 59
2017-08-11 07:00:00 14.2 4 Norte 14 Norte 0 -- -- 58
2017-08-11 06:00:00 15.2 9 Norte 18 Norte 0 -- -- 58
2017-08-11 05:00:00 15.9 6 Norte 16 Nordeste 0 -- -- 55
2017-08-11 04:00:00 16.8 8 Nordeste 19 Nordeste 0 -- -- 53
2017-08-11 03:00:00 17.9 5 Nordeste 19 Nordeste 0 -- -- 49
2017-08-11 02:00:00 19 10 Nordeste 22 Nordeste 0 -- -- 46
2017-08-11 01:00:00 20.2 9 Nordeste 31 Norte 0 -- -- 42
2017-08-11 00:00:00 22 18 Norte 31 Norte 0 -- -- 35
2017-08-10 23:00:00 23.1 17 Norte 31 Norte 0 -- -- 30
2017-08-10 22:00:00 22.9 5 Nordeste 8 Nordeste 0 -- -- 32
2017-08-10 21:00:00 26.8 3 Nordeste 12 Nordeste 0 -- -- 26
2017-08-10 20:00:00 28.6 3 Norte 19 Norte 0 -- -- 24
2017-08-10 19:00:00 28.3 6 Norte 22 Norte 0 -- -- 23
2017-08-10 18:00:00 28.8 10 Norte 23 Nordeste 0 -- -- 23
2017-08-10 17:00:00 27.7 12 Nordeste 32 Noroeste 0 -- -- 23
2017-08-10 16:00:00 27.5 13 Norte 30 Norte 0 -- -- 26
2017-08-10 15:00:00 25.9 12 Norte 36 Norte 0 -- -- 27
2017-08-10 14:00:00 24.5 11 Norte 24 Norte 0 -- -- 31
2017-08-10 13:00:00 22.9 12 Nordeste 30 Norte 0 -- -- 35
2017-08-10 12:00:00 21.2 16 Norte 34 Norte 0 -- -- 39
2017-08-10 11:00:00 19 18 Nordeste 35 Norte 0 -- -- 43
2017-08-10 10:00:00 16.6 21 Norte 32 Norte 0 -- -- 47
2017-08-10 09:00:00 14.2 15 Nordeste 30 Norte 0 -- -- 52
2017-08-10 08:00:00 12.1 8 Nordeste 21 Nordeste 0 -- -- 58
2017-08-10 07:00:00 12 10 Nordeste 22 Norte 0 -- -- 57
2017-08-10 06:00:00 12.7 13 Nordeste 28 Nordeste 0 -- -- 55
2017-08-10 05:00:00 13.5 13 Nordeste 24 Norte 0 -- -- 52
2017-08-10 04:00:00 14 9 Nordeste 25 Nordeste 0 -- -- 51
2017-08-10 03:00:00 15.2 13 Nordeste 29 Norte 0 -- -- 48
2017-08-10 02:00:00 16.4 14 Nordeste 31 Norte 0 -- -- 47
2017-08-10 01:00:00 17.5 18 Nordeste 40 Nordeste 0 -- -- 44
2017-08-10 00:00:00 18.5 17 Nordeste 48 Nordeste 0 -- -- 44
2017-08-09 23:00:00 19.7 18 Nordeste 41 Nordeste 0 -- -- 43
2017-08-09 22:00:00 20.9 22 Nordeste 50 Nordeste 0 -- -- 42
2017-08-09 21:00:00 22.9 24 Norte 45 Nordeste 0 -- -- 38
2017-08-09 20:00:00 25.1 22 Nordeste 47 Nordeste 0 -- -- 35
2017-08-09 19:00:00 27.4 23 Nordeste 41 Norte 0 -- -- 31
2017-08-09 18:00:00 29.1 10 Nordeste 28 Norte 0 -- -- 30
2017-08-09 17:00:00 31.5 10 Noroeste 27 Norte 0 -- -- 26
2017-08-09 16:00:00 30.8 8 Noroeste 20 Norte 0 -- -- 28
2017-08-09 15:00:00 30.5 8 Noroeste 23 Oeste 0 -- -- 31
2017-08-09 14:00:00 29 7 Norte 19 Oeste 0 -- -- 35
2017-08-09 13:00:00 26.6 4 Sudoeste 15 Este 0 -- -- 43
2017-08-09 12:00:00 25.4 5 Norte 13 Noroeste 0 -- -- 48
2017-08-09 11:00:00 24.1 7 Norte 14 Norte 0 -- -- 51
2017-08-09 10:00:00 20.8 4 Norte 9 Norte 0 -- -- 50
2017-08-09 09:00:00 18.2 6 Nordeste 13 Nordeste 0 -- -- 53
2017-08-09 08:00:00 15.8 0 Calma 9 Nordeste 0 -- -- 57
2017-08-09 07:00:00 15.8 0 Calma 6 Nordeste 0 -- -- 54
2017-08-09 06:00:00 17.1 0 Calma 15 Nordeste 0 -- -- 50
2017-08-09 05:00:00 18 9 Nordeste 19 Nordeste 0 -- -- 49
2017-08-09 04:00:00 18.8 7 Nordeste 16 Norte 0 -- -- 46
2017-08-09 03:00:00 20.3 7 Norte 21 Nordeste 0 -- -- 39
2017-08-09 02:00:00 21.7 7 Nordeste 21 Nordeste 0 -- -- 32
2017-08-09 01:00:00 23.1 10 Nordeste 24 Norte 0 -- -- 29
2017-08-09 00:00:00 24.5 16 Norte 30 Norte 0 -- -- 27
2017-08-08 23:00:00 25.3 13 Norte 24 Norte 0 -- -- 26
2017-08-08 22:00:00 26.6 13 Oeste 22 Oeste 0 -- -- 20
2017-08-08 21:00:00 28.6 11 Sudoeste 17 Sudoeste 0 -- -- 22
2017-08-08 20:00:00 30.2 9 Oeste 20 Sur 0 -- -- 22
2017-08-08 19:00:00 30.9 10 Sudoeste 29 Sudoeste 0 -- -- 23
2017-08-08 18:00:00 30.8 8 Oeste 23 Sudoeste 0 -- -- 22
2017-08-08 17:00:00 31.1 8 Sudeste 16 Sur 0 -- -- 23
2017-08-08 16:00:00 30.2 8 Sur 20 Sur 0 -- -- 24
2017-08-08 15:00:00 29.3 6 Nordeste 23 Norte 0 -- -- 25
2017-08-08 14:00:00 28.8 8 Noroeste 24 Noroeste 0 -- -- 28
2017-08-08 13:00:00 27.7 9 Norte 26 Noroeste 0 -- -- 30
2017-08-08 12:00:00 26.4 13 Nordeste 30 Nordeste 0 -- -- 33
2017-08-08 11:00:00 24.7 18 Norte 32 Norte 0 -- -- 38
2017-08-08 10:00:00 23.1 14 Nordeste 27 Nordeste 0 -- -- 43
2017-08-08 09:00:00 20.9 7 Norte 19 Norte 0 -- -- 49
2017-08-08 08:00:00 17.4 2 Norte 9 Este 0 -- -- 53
2017-08-08 07:00:00 17.9 5 Oeste 9 Nordeste 0 -- -- 52
2017-08-08 06:00:00 18.3 5 Oeste 11 Oeste 0 -- -- 52
2017-08-08 05:00:00 19.8 7 Sudoeste 13 Oeste 0 -- -- 48
2017-08-08 04:00:00 21.6 8 Oeste 23 Oeste 0 -- -- 40
2017-08-08 03:00:00 22.8 7 Noroeste 19 Noroeste 0 -- -- 31
2017-08-08 02:00:00 25 4 Oeste 27 Oeste 0 -- -- 24
2017-08-08 01:00:00 27.1 22 Oeste 33 Oeste 0 -- -- 19
2017-08-08 00:00:00 28.6 20 Sudoeste 31 Sudoeste 0 -- -- 16
2017-08-07 23:00:00 29.1 13 Oeste 27 Sudoeste 0 -- -- 15
2017-08-07 22:00:00 30.9 18 Oeste 36 Oeste 0 -- -- 13
2017-08-07 21:00:00 32.7 20 Oeste 43 Sudoeste 0 -- -- 13
2017-08-07 20:00:00 34.7 30 Oeste 45 Sudoeste 0 -- -- 14
2017-08-07 19:00:00 36.1 23 Oeste 45 Oeste 0 -- -- 13
2017-08-07 18:00:00 37.1 24 Oeste 45 Oeste 0 -- -- 13
2017-08-07 17:00:00 37 27 Oeste 47 Sudoeste 0 -- -- 12
2017-08-07 16:00:00 36.5 25 Oeste 40 Sudoeste 0 -- -- 10
2017-08-07 15:00:00 35.6 23 Sudoeste 41 Sudoeste 0 -- -- 14
2017-08-07 14:00:00 33.9 18 Sur 32 Sudoeste 0 -- -- 18
2017-08-07 13:00:00 32.5 17 Sur -- -- -- -- -- 24
2017-08-07 12:00:00 30.6 14 Sur 22 Sudoeste 0 -- -- 29
2017-08-07 11:00:00 27.8 10 Sudoeste 17 Sudoeste 0 -- -- 44
2017-08-07 10:00:00 25.8 6 Oeste 12 Sudoeste 0 -- -- 60
2017-08-07 09:00:00 23.8 0 Calma 5 Oeste 0 -- -- 69
2017-08-07 08:00:00 20.8 0 Calma 6 Noroeste 0 -- -- 77
2017-08-07 07:00:00 20.9 0 Calma 3 Oeste 0 -- -- 75
2017-08-07 06:00:00 22.4 0 Calma 13 Sudeste 0 -- -- 71
2017-08-07 05:00:00 23.6 4 Sudeste 12 Sur 0 -- -- 70
2017-08-07 04:00:00 24.6 7 Sudoeste 14 Sudoeste 0 -- -- 67
2017-08-07 03:00:00 25.1 10 Sur 18 Sur 0 -- -- 61
2017-08-07 02:00:00 23 5 Sur 14 Sur 0 -- -- 48
2017-08-07 01:00:00 24.9 2 Oeste 13 Sur 0 -- -- 36
2017-08-07 00:00:00 26.3 4 Este 7 Este 0 -- -- 36
2017-08-06 23:00:00 28 4 Sur 8 Sur 0 -- -- 32
2017-08-06 22:00:00 31 4 Sur 15 Oeste 0 -- -- 30
2017-08-06 21:00:00 34.8 10 Oeste 23 Oeste 0 -- -- 23
2017-08-06 20:00:00 36.2 13 Oeste 26 Noroeste 0 -- -- 22
2017-08-06 19:00:00 37.4 18 Sudoeste 26 Sudoeste 0 -- -- 20
2017-08-06 18:00:00 37.6 18 Sudoeste 35 Oeste 0 -- -- 18
2017-08-06 17:00:00 37.3 16 Sudoeste 33 Sur 0 -- -- 19
2017-08-06 16:00:00 36.9 17 Sur 35 Sudoeste 0 -- -- 16
2017-08-06 15:00:00 36.5 22 Oeste 34 Sudoeste 0 -- -- 23
2017-08-06 14:00:00 35.8 15 Sur 35 Sur 0 -- -- 21
2017-08-06 13:00:00 34 8 Sudeste 27 Sudoeste 0 -- -- 32
2017-08-06 12:00:00 31.6 7 Norte 15 Noroeste 0 -- -- 39
2017-08-06 11:00:00 28.9 11 Norte 22 Norte 0 -- -- 44
2017-08-06 10:00:00 25.3 11 Norte 21 Nordeste 0 -- -- 51
2017-08-06 09:00:00 23.3 12 Nordeste 21 Norte 0 -- -- 56
2017-08-06 08:00:00 22 10 Nordeste 23 Nordeste 0 -- -- 60
2017-08-06 07:00:00 22 13 Norte 24 Nordeste 0 -- -- 61
2017-08-06 06:00:00 22.9 13 Nordeste 27 Norte 0 -- -- 59
2017-08-06 05:00:00 23.9 12 Norte 25 Norte 0 -- -- 56
2017-08-06 04:00:00 24.8 8 Nordeste 21 Norte 0 -- -- 54
2017-08-06 03:00:00 25.7 6 Norte 23 Nordeste 0 -- -- 52
2017-08-06 02:00:00 27.1 9 Norte 26 Norte 0 -- -- 49
2017-08-06 01:00:00 28.7 11 Norte 27 Norte 0 -- -- 46
2017-08-06 00:00:00 30.4 17 Norte 31 Norte 0 -- -- 42
2017-08-05 23:00:00 30.6 2 Sudoeste 9 Oeste 0 -- -- 32
2017-08-05 22:00:00 34 8 Oeste 17 Noroeste 0 -- -- 26
2017-08-05 21:00:00 36.8 13 Oeste 28 Oeste 0 -- -- 23
2017-08-05 20:00:00 38.5 12 Oeste 32 Sudoeste 0 -- -- 21
2017-08-05 19:00:00 39.3 17 Oeste 34 Oeste 0 -- -- 21
2017-08-05 18:00:00 39.6 17 Oeste 34 Oeste 0 -- -- 21
2017-08-05 17:00:00 39.6 17 Sudoeste 33 Sudoeste 0 -- -- 22
2017-08-05 16:00:00 39.6 19 Sudoeste 33 Oeste 0 -- -- 22
2017-08-05 15:00:00 38.9 14 Sudoeste 27 Sudoeste 0 -- -- 23
2017-08-05 14:00:00 37.8 7 Oeste 21 Sudoeste 0 -- -- 27
2017-08-05 13:00:00 36.5 5 Sudoeste 17 Nordeste 0 -- -- 29
2017-08-05 12:00:00 34.2 5 Norte 17 Sudeste 0 -- -- 32
2017-08-05 11:00:00 31.7 3 Sur 8 Norte 0 -- -- 36
2017-08-05 10:00:00 29.6 3 Este 6 Este 0 -- -- 40
2017-08-05 09:00:00 25.5 2 Norte 5 Noroeste 0 -- -- 49
2017-08-05 08:00:00 21.7 0 Calma 7 Nordeste 0 -- -- 57
2017-08-05 07:00:00 21.8 0 Calma 6 Sur 0 -- -- 56
2017-08-05 06:00:00 22.6 5 Sur 6 Sur 0 -- -- 51
2017-08-05 05:00:00 23.9 2 Nordeste 9 Sudeste 0 -- -- 48
2017-08-05 04:00:00 24.9 5 Nordeste 7 Norte 0 -- -- 47
2017-08-05 03:00:00 25.9 3 Este 11 Este 0 -- -- 42
2017-08-05 02:00:00 27 3 Este 10 Nordeste 0 -- -- 40
2017-08-05 01:00:00 27.3 4 Este 10 Nordeste 0 -- -- 40
2017-08-05 00:00:00 28 7 Nordeste 12 Norte 0 -- -- 39
2017-08-04 23:00:00 29.6 0 Calma 5 Noroeste 0 -- -- 42
2017-08-04 22:00:00 32.1 0 Calma 6 Sudoeste 0 -- -- 35
2017-08-04 21:00:00 36.3 6 Sudoeste 14 Sudoeste 0 -- -- 25
2017-08-04 20:00:00 38.7 8 Sur 14 Sudoeste 0 -- -- 22
2017-08-04 19:00:00 39.7 5 Noroeste 13 Norte 0 -- -- 21
2017-08-04 18:00:00 39 8 Sudoeste 17 Noroeste 0 -- -- 22
2017-08-04 17:00:00 39.4 8 Noroeste 19 Oeste 0 -- -- 22
2017-08-04 16:00:00 38.4 6 Noroeste 20 Oeste 0 -- -- 24
2017-08-04 15:00:00 36.8 4 Nordeste 19 Noroeste 0 -- -- 26
2017-08-04 14:00:00 35.5 5 Oeste 19 Noroeste 0 -- -- 27
2017-08-04 13:00:00 34.4 8 Sur 23 Sudoeste 0 -- -- 28
2017-08-04 12:00:00 32.9 7 Noroeste 16 Norte 0 -- -- 33
2017-08-04 11:00:00 31.1 4 Noroeste 8 Nordeste 0 -- -- 35
2017-08-04 10:00:00 28 0 Calma 4 Oeste 0 -- -- 38
2017-08-04 09:00:00 24.2 0 Calma 5 Nordeste 0 -- -- 43
2017-08-04 08:00:00 20.9 4 Este 9 Este 0 -- -- 47
2017-08-04 07:00:00 19.5 3 Norte 8 Este 0 -- -- 48
2017-08-04 06:00:00 20.5 3 Nordeste 6 Nordeste 0 -- -- 43
2017-08-04 05:00:00 21.5 4 Nordeste 9 Nordeste 0 -- -- 41
2017-08-04 04:00:00 20.7 2 Este 8 Nordeste 0 -- -- 45
2017-08-04 03:00:00 21.2 3 Nordeste 6 Nordeste 0 -- -- 41
2017-08-04 02:00:00 22.4 3 Nordeste 6 Nordeste 0 -- -- 37
2017-08-04 01:00:00 23.9 0 Calma 9 Nordeste 0 -- -- 31
2017-08-04 00:00:00 25.9 6 Este 8 Este 0 -- -- 28
2017-08-03 23:00:00 26.7 0 Calma 5 Sudoeste 0 -- -- 26
2017-08-03 22:00:00 29.8 3 Sudoeste 10 Sudoeste 0 -- -- 22
2017-08-03 21:00:00 34.9 8 Sudoeste 21 Sudoeste 0 -- -- 16
2017-08-03 20:00:00 36.7 12 Sudoeste 23 Sudoeste 0 -- -- 13
2017-08-03 19:00:00 37.3 15 Sudoeste 26 Sudoeste 0 -- -- 13
2017-08-03 18:00:00 37.2 17 Sudoeste 28 Sudoeste 0 -- -- 16
2017-08-03 17:00:00 37.3 15 Sudoeste 27 Sudoeste 0 -- -- 18
2017-08-03 16:00:00 36.5 10 Sudoeste 24 Oeste 0 -- -- 19
2017-08-03 15:00:00 35.6 9 Sudoeste 20 Sudoeste 0 -- -- 23
2017-08-03 14:00:00 34.5 9 Sudoeste 19 Oeste 0 -- -- 26
2017-08-03 13:00:00 32.7 9 Sudoeste 20 Sudoeste 0 -- -- 30
2017-08-03 12:00:00 30.6 5 Sudoeste 13 Oeste 0 -- -- 40
2017-08-03 11:00:00 28.8 4 Sur 7 Sudeste 0 -- -- 45
2017-08-03 10:00:00 25.6 3 Nordeste 9 Este 0 -- -- 48
2017-08-03 09:00:00 23 0 Calma 9 Este 0 -- -- 52
2017-08-03 08:00:00 19.8 4 Este 10 Este 0 -- -- 60
2017-08-03 07:00:00 17.6 3 Este 5 Este 0 -- -- 68
2017-08-03 06:00:00 18.5 4 Este 5 Este 0 -- -- 70
2017-08-03 05:00:00 19.2 2 Noroeste 5 Sudeste 0 -- -- 64
2017-08-03 04:00:00 19.7 3 Noroeste 6 Oeste 0 -- -- 55
2017-08-03 03:00:00 21.9 0 Calma 5 Sudoeste 0 -- -- 50
2017-08-03 02:00:00 22.3 0 Calma 5 Sudoeste 0 -- -- 47
2017-08-03 01:00:00 22.5 2 Oeste 9 Sudeste 0 -- -- 41
2017-08-03 00:00:00 23.9 6 Sudeste 12 Este 0 -- -- 35
2017-08-02 23:00:00 25 2 Sudeste 6 Sur 0 -- -- 32
2017-08-02 22:00:00 28.9 0 Calma 9 Oeste 0 -- -- 28
2017-08-02 21:00:00 33.2 6 Sudoeste 15 Sudoeste 0 -- -- 22
2017-08-02 20:00:00 34.7 11 Sudoeste 24 Sur 0 -- -- 18
2017-08-02 19:00:00 35.2 14 Sudoeste 26 Sudoeste 0 -- -- 19
2017-08-02 18:00:00 35.4 10 Sur 25 Sudoeste 0 -- -- 20
2017-08-02 17:00:00 35.5 10 Sudoeste 23 Sudoeste 0 -- -- 19
2017-08-02 16:00:00 35.2 12 Sur 24 Sudoeste 0 -- -- 19
2017-08-02 15:00:00 34.6 7 Oeste 17 Oeste 0 -- -- 22
2017-08-02 14:00:00 33.5 8 Sur 17 Oeste 0 -- -- 24
2017-08-02 13:00:00 31.8 7 Sur 19 Sudoeste 0 -- -- 31
2017-08-02 12:00:00 30.1 6 Oeste 15 Sur 0 -- -- 34
2017-08-02 11:00:00 28.2 5 Este 16 Este 0 -- -- 40
2017-08-02 10:00:00 25.5 6 Este 12 Este 0 -- -- 57
2017-08-02 09:00:00 21.7 4 Nordeste 6 Nordeste 0 -- -- 50
2017-08-02 08:00:00 17.7 4 Nordeste 7 Este 0 -- -- 57
2017-08-02 07:00:00 16.3 0 Calma 8 Este 0 -- -- 60
2017-08-02 06:00:00 17.1 0 Calma 5 Oeste 0 -- -- 62
2017-08-02 05:00:00 18.2 0 Calma 7 Nordeste 0 -- -- 56
2017-08-02 04:00:00 19.1 5 Oeste 8 Sudoeste 0 -- -- 55
2017-08-02 03:00:00 21 5 Nordeste 15 Este 0 -- -- 39
2017-08-02 02:00:00 20.7 10 Este 17 Este 0 -- -- 42
2017-08-02 01:00:00 21.2 4 Nordeste 6 Nordeste 0 -- -- 40
2017-08-02 00:00:00 23.1 4 Nordeste 6 Este 0 -- -- 36
2017-08-01 23:00:00 24.9 0 Calma 5 Sudeste 0 -- -- 33
2017-08-01 22:00:00 27.4 2 Sur 11 Oeste 0 -- -- 29
2017-08-01 21:00:00 31.5 8 Oeste 19 Oeste 0 -- -- 23
2017-08-01 20:00:00 33.2 11 Sudoeste 21 Sudoeste 0 -- -- 21
2017-08-01 19:00:00 33.6 13 Sudoeste 25 Sudoeste 0 -- -- 22
2017-08-01 18:00:00 33.7 12 Sudoeste 25 Sudoeste 0 -- -- 21
2017-08-01 17:00:00 33.4 6 Oeste 25 Sudoeste 0 -- -- 21
2017-08-01 16:00:00 32.6 13 Sur 28 Sur 0 -- -- 21
2017-08-01 15:00:00 32.3 17 Sudoeste 29 Sudoeste 0 -- -- 21
2017-08-01 14:00:00 31.2 13 Oeste 28 Oeste 0 -- -- 23
2017-08-01 13:00:00 30.9 12 Oeste 25 Oeste 0 -- -- 25
2017-08-01 12:00:00 29 5 Sudeste 17 Sudoeste 0 -- -- 32
2017-08-01 11:00:00 25.9 8 Oeste 13 Oeste 0 -- -- 34
2017-08-01 10:00:00 24 2 Sur 8 Sur 0 -- -- 38
2017-08-01 09:00:00 21.9 4 Oeste 9 Oeste 0 -- -- 44
2017-08-01 08:00:00 19.4 0 Calma 9 Sudoeste 0 -- -- 50
2017-08-01 07:00:00 18.6 2 Oeste 8 Sur 0 -- -- 47
2017-08-01 06:00:00 20.3 3 Sudoeste 14 Sudoeste 0 -- -- 43
2017-08-01 05:00:00 20.9 7 Sudoeste 12 Oeste 0 -- -- 39
2017-08-01 04:00:00 21.7 8 Sudoeste 12 Sudoeste 0 -- -- 37
2017-08-01 03:00:00 21.7 0 Calma 5 Oeste 0 -- -- 42
2017-08-01 02:00:00 22.7 0 Calma 4 Sudeste 0 -- -- 35
2017-08-01 01:00:00 23.7 2 Sudeste 4 Sur 0 -- -- 35
2017-08-01 00:00:00 24.9 4 Sur 5 Sur 0 -- -- 31
2017-07-31 23:00:00 25.8 3 Sudeste 13 Oeste 0 -- -- 26
2017-07-31 22:00:00 29 9 Oeste 23 Oeste 0 -- -- 20
2017-07-31 21:00:00 30.8 8 Oeste 36 Sudoeste 0 -- -- 20
2017-07-31 20:00:00 33.8 23 Sudoeste 36 Sudoeste 0 -- -- 14
2017-07-31 19:00:00 34.6 15 Sudoeste 33 Oeste 0 -- -- 18
2017-07-31 18:00:00 35.2 22 Sudoeste 31 Sudoeste 0 -- -- 18
2017-07-31 17:00:00 35.4 13 Sudoeste 39 Sudoeste 0 -- -- 18
2017-07-31 16:00:00 35.6 21 Oeste 35 Sudoeste 0 -- -- 17
2017-07-31 15:00:00 34.6 16 Sudoeste 35 Sudoeste 0 -- -- 18
2017-07-31 14:00:00 33.8 17 Sudoeste 33 Sudoeste 0 -- -- 20
2017-07-31 13:00:00 32.4 15 Sudoeste 24 Sudoeste 0 -- -- 22
2017-07-31 12:00:00 30.1 10 Sur 17 Sur 0 -- -- 27
2017-07-31 11:00:00 27.7 10 Sudoeste 16 Sudoeste 0 -- -- 33
2017-07-31 10:00:00 25.3 10 Sudoeste 14 Sudoeste 0 -- -- 37
2017-07-31 09:00:00 21.7 4 Sudoeste 9 Oeste 0 -- -- 46
2017-07-31 08:00:00 17.5 0 Calma 3 Sudoeste 0 -- -- 58
2017-07-31 07:00:00 17.4 0 Calma 2 Nordeste 0 -- -- 55
2017-07-31 06:00:00 18.3 0 Calma 2 Sudeste 0 -- -- 52
2017-07-31 05:00:00 19.3 0 Calma 3 Sur 0 -- -- 50
2017-07-31 04:00:00 20 0 Calma 4 Sudoeste 0 -- -- 50
2017-07-31 03:00:00 20.9 2 Sudoeste 4 Oeste 0 -- -- 46
2017-07-31 02:00:00 21.8 0 Calma 3 Noroeste 0 -- -- 43
2017-07-31 01:00:00 23.9 0 Calma 5 Sudeste 0 -- -- 39
2017-07-31 00:00:00 25.8 2 Este 8 Sudeste 0 -- -- 32
2017-07-30 23:00:00 28.4 3 Este 12 Oeste 0 -- -- 28
2017-07-30 22:00:00 31 8 Oeste 16 Oeste 0 -- -- 25
2017-07-30 21:00:00 34.4 12 Oeste 23 Oeste 0 -- -- 22
2017-07-30 20:00:00 36.3 16 Oeste 34 Oeste 0 -- -- 21
2017-07-30 19:00:00 37.1 17 Oeste 36 Oeste 0 -- -- 20
2017-07-30 18:00:00 37.8 15 Oeste 31 Oeste 0 -- -- 19
2017-07-30 17:00:00 37.5 22 Oeste 36 Oeste 0 -- -- 19
2017-07-30 16:00:00 37.5 20 Sudoeste 34 Sudoeste 0 -- -- 19
2017-07-30 15:00:00 37.2 20 Sudoeste 37 Oeste 0 -- -- 21
2017-07-30 14:00:00 36.3 22 Sudoeste 36 Sudoeste 0 -- -- 21
2017-07-30 13:00:00 34.8 14 Sur 22 Sudoeste 0 -- -- 23
2017-07-30 12:00:00 31.9 10 Sudoeste 21 Sudoeste 0 -- -- 30
2017-07-30 11:00:00 29.4 10 Sudoeste 18 Sudoeste 0 -- -- 34
2017-07-30 10:00:00 26.2 2 Oeste 8 Este 0 -- -- 37
2017-07-30 09:00:00 22.8 7 Este 12 Este 0 -- -- 43
2017-07-30 08:00:00 18.8 6 Este 10 Nordeste 0 -- -- 55
2017-07-30 07:00:00 18.1 4 Nordeste 8 Nordeste 0 -- -- 56
2017-07-30 06:00:00 18.5 0 Calma 8 Este 0 -- -- 56
2017-07-30 05:00:00 19.7 4 Este 6 Este 0 -- -- 52
2017-07-30 04:00:00 21.8 5 Nordeste 12 Nordeste 0 -- -- 47
2017-07-30 03:00:00 22.6 7 Nordeste 11 Nordeste 0 -- -- 47
2017-07-30 02:00:00 24.1 2 Norte 8 Norte 0 -- -- 46
2017-07-30 01:00:00 25.5 3 Sudeste 9 Sur 0 -- -- 39
2017-07-30 00:00:00 28.4 4 Sur 15 Sudoeste 0 -- -- 31
2017-07-29 23:00:00 30.1 13 Sudoeste 22 Oeste 0 -- -- 29
2017-07-29 22:00:00 30.8 5 Sudoeste 12 Sudoeste 0 -- -- 28
2017-07-29 21:00:00 34.6 10 Sudoeste 22 Sudoeste 0 -- -- 24
2017-07-29 20:00:00 36.4 16 Sur 27 Sur 0 -- -- 21
2017-07-29 19:00:00 37.2 18 Sur 29 Sur 0 -- -- 20
2017-07-29 18:00:00 36 12 Sur 30 Sudoeste 0 -- -- 20
2017-07-29 17:00:00 37.7 13 Sudoeste 40 Oeste 0 -- -- 19
2017-07-29 16:00:00 37.2 14 Sudoeste 31 Oeste 0 -- -- 20
2017-07-29 15:00:00 36.2 20 Sudoeste 32 Sudoeste 0 -- -- 22
2017-07-29 14:00:00 35.4 17 Sudoeste 32 Oeste 0 -- -- 20
2017-07-29 13:00:00 33.8 16 Sudoeste 27 Sudoeste 0 -- -- 23
2017-07-29 12:00:00 31.4 11 Sudoeste 19 Sudoeste 0 -- -- 25
2017-07-29 11:00:00 28.7 9 Sudoeste 17 Sudoeste 0 -- -- 27
2017-07-29 10:00:00 25.6 3 Oeste 5 Sudoeste 0 -- -- 32
2017-07-29 09:00:00 22.6 0 Calma 5 Nordeste 0 -- -- 37
2017-07-29 08:00:00 18.3 2 Este 8 Este 0 -- -- 47
2017-07-29 07:00:00 16.8 0 Calma 6 Nordeste 0 -- -- 51
2017-07-29 06:00:00 17.6 3 Este 5 Este 0 -- -- 47
2017-07-29 05:00:00 18.8 3 Sudoeste 9 Nordeste 0 -- -- 40
2017-07-29 04:00:00 19 3 Nordeste 6 Este 0 -- -- 42
2017-07-29 03:00:00 20.6 4 Nordeste 10 Nordeste 0 -- -- 34
2017-07-29 02:00:00 21.2 2 Nordeste 3 Este 0 -- -- 34
2017-07-29 01:00:00 23.5 0 Calma 7 Nordeste 0 -- -- 29
2017-07-29 00:00:00 25 2 Sudoeste 6 Sur 0 -- -- 28
2017-07-28 23:00:00 27.4 0 Calma 10 Sur 0 -- -- 24
2017-07-28 22:00:00 30.5 7 Sur 13 Sudoeste 0 -- -- 21
2017-07-28 21:00:00 35.2 11 Sudoeste 22 Sudoeste 0 -- -- 15
2017-07-28 20:00:00 37.3 15 Oeste 26 Sudoeste 0 -- -- 12
2017-07-28 19:00:00 38.4 16 Oeste 31 Sudoeste 0 -- -- 10
2017-07-28 18:00:00 38.2 19 Oeste 34 Oeste 0 -- -- 14
2017-07-28 17:00:00 37.9 19 Oeste 33 Oeste 0 -- -- 13
2017-07-28 16:00:00 37.8 21 Oeste 46 Sudoeste 0 -- -- 17
2017-07-28 15:00:00 37 9 Sudoeste 25 Sur 0 -- -- 19
2017-07-28 14:00:00 36 13 Sudoeste 24 Sudoeste 0 -- -- 19
2017-07-28 13:00:00 35 5 Sudeste 13 Norte 0 -- -- 24
2017-07-28 12:00:00 32.6 4 Nordeste 10 Este 0 -- -- 27
2017-07-28 11:00:00 29.4 4 Noroeste 10 Nordeste 0 -- -- 28
2017-07-28 10:00:00 26.4 5 Este 10 Este 0 -- -- 34
2017-07-28 09:00:00 22.5 2 Noroeste 11 Este 0 -- -- 40
2017-07-28 08:00:00 18.9 6 Nordeste 9 Este 0 -- -- 48
2017-07-28 07:00:00 18 8 Este 12 Este 0 -- -- 51
2017-07-28 06:00:00 17.8 2 Noroeste 7 Nordeste 0 -- -- 52
2017-07-28 05:00:00 18.6 0 Calma 6 Nordeste 0 -- -- 52
2017-07-28 04:00:00 21.3 5 Nordeste 9 Este 0 -- -- 46
2017-07-28 03:00:00 22.8 5 Nordeste 9 Nordeste 0 -- -- 41
2017-07-28 02:00:00 22.8 5 Nordeste 8 Este 0 -- -- 46
2017-07-28 01:00:00 24.6 0 Calma 4 Sudoeste 0 -- -- 41
2017-07-28 00:00:00 26.8 3 Nordeste 6 Sudoeste 0 -- -- 36
2017-07-27 23:00:00 28.6 4 Sur 7 Sur 0 -- -- 31
2017-07-27 22:00:00 31.6 3 Sudoeste 15 Sudoeste 0 -- -- 27
2017-07-27 21:00:00 35.5 14 Sudoeste 22 Sudoeste 0 -- -- 21
2017-07-27 20:00:00 37.2 15 Sudoeste 26 Sudoeste 0 -- -- 18
2017-07-27 19:00:00 38 11 Oeste 31 Sudoeste 0 -- -- 18
2017-07-27 18:00:00 38.1 15 Sudoeste 30 Sudoeste 0 -- -- 18
2017-07-27 17:00:00 37.8 16 Oeste 28 Sudoeste 0 -- -- 20
2017-07-27 16:00:00 37.4 13 Oeste 26 Oeste 0 -- -- 21
2017-07-27 15:00:00 36.1 7 Sur 25 Sudoeste 0 -- -- 23
2017-07-27 14:00:00 35.5 9 Sudoeste 23 Oeste 0 -- -- 23
2017-07-27 13:00:00 33.5 6 Sudoeste 17 Oeste 0 -- -- 27
2017-07-27 12:00:00 31.2 8 Sudoeste 14 Sudoeste 0 -- -- 31
2017-07-27 11:00:00 28.9 3 Oeste 10 Oeste 0 -- -- 35
2017-07-27 10:00:00 26.3 4 Nordeste 7 Este 0 -- -- 39
2017-07-27 09:00:00 23.8 4 Nordeste 9 Nordeste 0 -- -- 45
2017-07-27 08:00:00 20.3 7 Este 13 Este 0 -- -- 50
2017-07-27 07:00:00 19.2 6 Nordeste 10 Este 0 -- -- 51
2017-07-27 06:00:00 19.4 5 Nordeste 9 Este 0 -- -- 50
2017-07-27 05:00:00 18.5 0 Calma 4 Sudeste 0 -- -- 58
2017-07-27 04:00:00 19.7 3 Nordeste 9 Sudoeste 0 -- -- 53
2017-07-27 03:00:00 21.1 4 Norte 12 Sur 0 -- -- 50
2017-07-27 02:00:00 22.3 5 Norte 10 Nordeste 0 -- -- 46
2017-07-27 01:00:00 22.4 3 Nordeste 10 Nordeste 0 -- -- 46
2017-07-27 00:00:00 24.1 6 Nordeste 10 Nordeste 0 -- -- 41
2017-07-26 23:00:00 25.7 0 Calma 5 Noroeste 0 -- -- 42
2017-07-26 22:00:00 29.3 0 Calma 8 Sudoeste 0 -- -- 33
2017-07-26 21:00:00 33.3 7 Sudoeste 17 Sur 0 -- -- 25
2017-07-26 20:00:00 34.4 7 Sudeste 13 Sur 0 -- -- 25
2017-07-26 19:00:00 34.6 6 Norte 24 Nordeste 0 -- -- 23
2017-07-26 18:00:00 33.8 4 Este 20 Sudoeste 0 -- -- 24
2017-07-26 17:00:00 33.6 8 Sur 21 Sudoeste 0 -- -- 26
2017-07-26 16:00:00 32.9 8 Sudoeste 21 Sudoeste 0 -- -- 25
2017-07-26 15:00:00 31.6 4 Oeste 15 Noroeste 0 -- -- 26
2017-07-26 14:00:00 30.6 5 Oeste 17 Nordeste 0 -- -- 29
2017-07-26 13:00:00 29 8 Nordeste 21 Este 0 -- -- 32
2017-07-26 12:00:00 27.1 5 Noroeste 12 Nordeste 0 -- -- 34
2017-07-26 11:00:00 24.4 5 Este 13 Este 0 -- -- 38
2017-07-26 10:00:00 21.6 6 Nordeste 13 Norte 0 -- -- 43
2017-07-26 09:00:00 20.3 5 Norte 13 Norte 0 -- -- 47
2017-07-26 08:00:00 16.9 2 Noroeste 6 Noroeste 0 -- -- 53
2017-07-26 07:00:00 17.5 5 Nordeste 14 Este 0 -- -- 50
2017-07-26 06:00:00 17.8 8 Nordeste 12 Este 0 -- -- 49
2017-07-26 05:00:00 18.7 6 Nordeste 13 Nordeste 0 -- -- 48
2017-07-26 04:00:00 19.9 8 Nordeste 15 Este 0 -- -- 45
2017-07-26 03:00:00 19.7 4 Este 6 Nordeste 0 -- -- 45
2017-07-26 02:00:00 21.6 2 Nordeste 19 Nordeste 0 -- -- 38
2017-07-26 01:00:00 23.9 13 Nordeste 33 Norte 0 -- -- 33
2017-07-26 00:00:00 24.9 19 Norte 32 Norte 0 -- -- 26
2017-07-25 23:00:00 25.9 19 Norte 40 Norte 0 -- -- 26
2017-07-25 22:00:00 27.4 25 Norte 38 Norte 0 -- -- 25
2017-07-25 21:00:00 29.9 17 Norte 32 Norte 0 -- -- 24
2017-07-25 20:00:00 32.5 8 Norte 23 Norte 0 -- -- 23
2017-07-25 19:00:00 33.1 11 Norte 28 Norte 0 -- -- 23
2017-07-25 18:00:00 32.4 10 Norte 26 Nordeste 0 -- -- 23
2017-07-25 17:00:00 32.5 10 Norte 24 Noroeste 0 -- -- 23
2017-07-25 16:00:00 31.4 8 Nordeste 22 Nordeste 0 -- -- 21
2017-07-25 15:00:00 30.5 9 Norte 24 Nordeste 0 -- -- 21
2017-07-25 14:00:00 28.5 13 Nordeste 25 Este 0 -- -- 25
2017-07-25 13:00:00 27.1 13 Norte 28 Noroeste 0 -- -- 31
2017-07-25 12:00:00 25 12 Nordeste 26 Nordeste 0 -- -- 38
2017-07-25 11:00:00 23.3 9 Norte 19 Norte 0 -- -- 43
2017-07-25 10:00:00 21.1 10 Norte 21 Norte 0 -- -- 49
2017-07-25 09:00:00 19.3 9 Nordeste 19 Nordeste 0 -- -- 55
2017-07-25 08:00:00 17.7 7 Nordeste 12 Norte 0 -- -- 60
2017-07-25 07:00:00 17.1 4 Norte 10 Nordeste 0 -- -- 62
2017-07-25 06:00:00 17.7 4 Nordeste 13 Nordeste 0 -- -- 60
2017-07-25 05:00:00 18.3 4 Nordeste 14 Nordeste 0 -- -- 58
2017-07-25 04:00:00 19.4 6 Nordeste 16 Nordeste 0 -- -- 55
2017-07-25 03:00:00 20.7 6 Nordeste 24 Nordeste 0 -- -- 51
2017-07-25 02:00:00 22 12 Nordeste 24 Nordeste 0 -- -- 47
2017-07-25 01:00:00 23.6 8 Nordeste 20 Nordeste 0 -- -- 43
2017-07-25 00:00:00 26 11 Nordeste 22 Nordeste 0 -- -- 36
2017-07-24 23:00:00 27.6 13 Norte 28 Norte 0 -- -- 31
2017-07-24 22:00:00 28.9 14 Norte 28 Norte 0 -- -- 28
2017-07-24 21:00:00 30.8 15 Norte 29 Norte 0 -- -- 26
2017-07-24 20:00:00 32.6 12 Nordeste 19 Nordeste 0 -- -- 25
2017-07-24 19:00:00 33.9 4 Nordeste 17 Nordeste 0 -- -- 25
2017-07-24 18:00:00 33.5 9 Este 21 Nordeste 0 -- -- 25
2017-07-24 17:00:00 33.8 9 Norte 21 Nordeste 0 -- -- 24
2017-07-24 16:00:00 32.8 9 Norte 21 Nordeste 0 -- -- 26
2017-07-24 15:00:00 32.6 10 Norte 23 Norte 0 -- -- 28
2017-07-24 14:00:00 30.8 7 Noroeste 18 Oeste 0 -- -- 33
2017-07-24 13:00:00 29.6 9 Sudeste 19 Norte 0 -- -- 35
2017-07-24 12:00:00 28.1 11 Norte 24 Norte 0 -- -- 39
2017-07-24 11:00:00 26.4 14 Norte 22 Norte 0 -- -- 42
2017-07-24 10:00:00 24.6 8 Norte 15 Norte 0 -- -- 46
2017-07-24 09:00:00 22.2 4 Norte 11 Norte 0 -- -- 51
2017-07-24 08:00:00 19.4 2 Nordeste 6 Nordeste 0 -- -- 55
2017-07-24 07:00:00 17 0 Calma 5 Este 0 -- -- 57
2017-07-24 06:00:00 17.6 2 Sudeste 6 Sudoeste 0 -- -- 55
2017-07-24 05:00:00 18.3 2 Sur 10 Nordeste 0 -- -- 51
2017-07-24 04:00:00 19.4 4 Nordeste 14 Este 0 -- -- 47
2017-07-24 03:00:00 19.3 6 Sur 8 Sur 0 -- -- 50
2017-07-24 02:00:00 20.9 0 Calma 7 Este 0 -- -- 43
2017-07-24 01:00:00 22.4 4 Sudeste 8 Nordeste 0 -- -- 42
2017-07-24 00:00:00 25.3 5 Nordeste 8 Nordeste 0 -- -- 33
2017-07-23 23:00:00 27.7 3 Norte 15 Norte 0 -- -- 28
2017-07-23 22:00:00 29.9 9 Noroeste 28 Noroeste 0 -- -- 25
2017-07-23 21:00:00 32.8 14 Noroeste 28 Noroeste 0 -- -- 23
2017-07-23 20:00:00 33.7 12 Oeste 24 Oeste 0 -- -- 23
2017-07-23 19:00:00 34.6 14 Sudoeste 28 Sudoeste 0 -- -- 20
2017-07-23 18:00:00 34.6 15 Sudoeste 36 Sudoeste 0 -- -- 19
2017-07-23 17:00:00 34.6 21 Oeste 32 Oeste 0 -- -- 18
2017-07-23 16:00:00 34.4 18 Sudoeste 35 Sudoeste 0 -- -- 20
2017-07-23 15:00:00 33.8 14 Sudoeste 26 Noroeste 0 -- -- 19
2017-07-23 14:00:00 32.7 10 Oeste 29 Sudoeste 0 -- -- 21
2017-07-23 13:00:00 31.5 9 Sudoeste 17 Oeste 0 -- -- 25
2017-07-23 12:00:00 28.6 8 Sudoeste 14 Oeste 0 -- -- 29
2017-07-23 11:00:00 26.6 5 Sudoeste 10 Sudoeste 0 -- -- 33
2017-07-23 10:00:00 24 4 Este 13 Nordeste 0 -- -- 36
2017-07-23 09:00:00 21.4 3 Norte 8 Este 0 -- -- 41
2017-07-23 08:00:00 16 4 Este 6 Este 0 -- -- 58
2017-07-23 07:00:00 15.4 2 Sudeste 6 Este 0 -- -- 56
2017-07-23 06:00:00 16.7 4 Nordeste 9 Nordeste 0 -- -- 50
2017-07-23 05:00:00 17.1 4 Nordeste 8 Nordeste 0 -- -- 49
2017-07-23 04:00:00 16.6 4 Nordeste 6 Nordeste 0 -- -- 53
2017-07-23 03:00:00 17.8 0 Calma 7 Nordeste 0 -- -- 50
2017-07-23 02:00:00 18.4 0 Calma 10 Nordeste 0 -- -- 49
2017-07-23 01:00:00 19.6 0 Calma 5 Este 0 -- -- 47
2017-07-23 00:00:00 22.2 3 Nordeste 6 Este 0 -- -- 40
2017-07-22 23:00:00 24.6 4 Sur 5 Sudeste 0 -- -- 34
2017-07-22 22:00:00 27.8 3 Sudoeste 12 Oeste 0 -- -- 28
2017-07-22 21:00:00 31.4 10 Oeste 22 Oeste 0 -- -- 22
2017-07-22 20:00:00 32.6 16 Oeste 27 Sudoeste 0 -- -- 22
2017-07-22 19:00:00 33.5 15 Sudoeste 26 Oeste 0 -- -- 20
2017-07-22 18:00:00 33.6 15 Sudoeste 33 Oeste 0 -- -- 20
2017-07-22 17:00:00 33.2 14 Sudoeste 29 Sudoeste 0 -- -- 21
2017-07-22 16:00:00 32.8 13 Sur 35 Sudoeste 0 -- -- 22
2017-07-22 15:00:00 31.8 16 Sudoeste 33 Sudoeste 0 -- -- 21
2017-07-22 14:00:00 30.9 13 Sudoeste 31 Sur 0 -- -- 24
2017-07-22 13:00:00 29.7 17 Sudoeste 28 Sudoeste 0 -- -- 27
2017-07-22 12:00:00 27.7 8 Oeste 16 Sudoeste 0 -- -- 30
2017-07-22 11:00:00 24.7 5 Oeste 10 Oeste 0 -- -- 36
2017-07-22 10:00:00 22.7 4 Sur 9 Sur 0 -- -- 41
2017-07-22 09:00:00 19.8 2 Nordeste 4 Norte 0 -- -- 48
2017-07-22 08:00:00 16 0 Calma 6 Nordeste 0 -- -- 61
2017-07-22 07:00:00 15.8 3 Este 8 Nordeste 0 -- -- 57
2017-07-22 06:00:00 16.7 3 Nordeste 9 Nordeste 0 -- -- 54
2017-07-22 05:00:00 16.9 2 Nordeste 5 Nordeste 0 -- -- 55
2017-07-22 04:00:00 18.4 0 Calma 5 Norte 0 -- -- 51
2017-07-22 03:00:00 20.2 3 Sur 7 Sudoeste 0 -- -- 45
2017-07-22 02:00:00 21.7 8 Sudoeste 15 Sudoeste 0 -- -- 42
2017-07-22 01:00:00 22.9 8 Sudoeste 12 Sudoeste 0 -- -- 40
2017-07-22 00:00:00 23.8 5 Sur 12 Sur 0 -- -- 38
2017-07-21 23:00:00 25 5 Sur 15 Sudoeste 0 -- -- 35
2017-07-21 22:00:00 26.5 13 Sudoeste 19 Oeste 0 -- -- 32
2017-07-21 21:00:00 29.8 12 Sudoeste 25 Oeste 0 -- -- 26
2017-07-21 20:00:00 31.1 17 Sudoeste 29 Sudoeste 0 -- -- 23
2017-07-21 19:00:00 31.9 19 Sudoeste 32 Sudoeste 0 -- -- 20
2017-07-21 18:00:00 31.8 18 Sudoeste 48 Sudoeste 0 -- -- 21
2017-07-21 17:00:00 32 20 Oeste 40 Oeste 0 -- -- 24
2017-07-21 16:00:00 31.8 19 Sudoeste 37 Sudoeste 0 -- -- 26
2017-07-21 15:00:00 31 24 Sudoeste 39 Sudoeste 0 -- -- 25
2017-07-21 14:00:00 30.4 19 Sudoeste 37 Oeste 0 -- -- 28
2017-07-21 13:00:00 29.8 19 Sudoeste 35 Oeste 0 -- -- 29
2017-07-21 12:00:00 28.2 13 Sudoeste 22 Sudoeste 0 -- -- 32
2017-07-21 11:00:00 25.5 12 Sudoeste 22 Sudoeste 0 -- -- 38
2017-07-21 10:00:00 24.1 8 Sur 15 Sudoeste 0 -- -- 40
2017-07-21 09:00:00 21.8 8 Sur 12 Sur 0 -- -- 46
2017-07-21 08:00:00 18.2 2 Noroeste 6 Sudoeste 0 -- -- 59
2017-07-21 07:00:00 17.3 8 Sudoeste 12 Sudoeste 0 -- -- 63
2017-07-21 06:00:00 18 6 Sudoeste 10 Sudoeste 0 -- -- 57
2017-07-21 05:00:00 19.4 3 Sudoeste 11 Sur 0 -- -- 52
2017-07-21 04:00:00 20.8 5 Sudeste 13 Sudeste 0 -- -- 45
2017-07-21 03:00:00 20.9 0 Calma 5 Oeste 0 -- -- 50
2017-07-21 02:00:00 21.8 4 Sudoeste 12 Sudoeste 0 -- -- 43
2017-07-21 01:00:00 23.1 0 Calma 8 Sur 0 -- -- 39
2017-07-21 00:00:00 24.5 5 Sur 10 Sur 0 -- -- 33
2017-07-20 23:00:00 25.8 4 Sudoeste 6 Oeste 0 -- -- 29
2017-07-20 22:00:00 27.8 4 Oeste 10 Oeste 0 -- -- 32
2017-07-20 21:00:00 29.8 5 Oeste 12 Oeste 0 -- -- 27
2017-07-20 20:00:00 32 9 Sudoeste 18 Sudoeste 0 -- -- 21
2017-07-20 19:00:00 33.2 7 Sudoeste 22 Sudoeste 0 -- -- 20
2017-07-20 18:00:00 33.2 9 Sur 24 Sudoeste 0 -- -- 22
2017-07-20 17:00:00 32.6 12 Sudoeste 28 Sudoeste 0 -- -- 22
2017-07-20 16:00:00 32.4 10 Sur 26 Oeste 0 -- -- 26
2017-07-20 15:00:00 30.8 8 Sudoeste 24 Oeste 0 -- -- 24
2017-07-20 14:00:00 30 15 Sudoeste 24 Sudoeste 0 -- -- 31
2017-07-20 13:00:00 29 12 Oeste 20 Sudoeste 0 -- -- 32
2017-07-20 12:00:00 28.1 7 Sudoeste 24 Oeste 0 -- -- 38
2017-07-20 11:00:00 26 4 Este 10 Sudeste 0 -- -- 43
2017-07-20 10:00:00 23 4 Sudoeste 10 Sudoeste 0 -- -- 51
2017-07-20 09:00:00 21.2 5 Oeste 8 Oeste 0 -- -- 58
2017-07-20 08:00:00 18.6 2 Nordeste 6 Nordeste 0 -- -- 64
2017-07-20 07:00:00 16.7 0 Calma 6 Nordeste 0 -- -- 69
2017-07-20 06:00:00 18 2 Nordeste 4 Nordeste 0 -- -- 64
2017-07-20 05:00:00 19.1 2 Norte 4 Oeste 0 -- -- 60
2017-07-20 04:00:00 19.6 3 Oeste 6 Oeste 0 -- -- 56
2017-07-20 03:00:00 21.3 3 Nordeste 7 Nordeste 0 -- -- 49
2017-07-20 02:00:00 22.8 4 Sur 13 Oeste 0 -- -- 44
2017-07-20 01:00:00 23.8 5 Sur 13 Sur 0 -- -- 40
2017-07-20 00:00:00 24.4 8 Sudoeste 14 Sudoeste 0 -- -- 38
2017-07-19 23:00:00 26.2 7 Oeste 21 Oeste 0 -- -- 35
2017-07-19 22:00:00 27.8 14 Oeste 32 Oeste 0 -- -- 31
2017-07-19 21:00:00 30.5 23 Oeste 37 Oeste 0 -- -- 25
2017-07-19 20:00:00 31.1 23 Oeste 41 Oeste 0 -- -- 23
2017-07-19 19:00:00 32.4 23 Oeste 42 Sudoeste 0 -- -- 22
2017-07-19 18:00:00 32.9 24 Sudoeste 39 Oeste 0 -- -- 26
2017-07-19 17:00:00 32 20 Oeste 41 Sudoeste 0 -- -- 22
2017-07-19 16:00:00 33 24 Oeste 43 Sudoeste 0 -- -- 22
2017-07-19 15:00:00 32.2 23 Sudoeste 38 Sudoeste 0 -- -- 24
2017-07-19 14:00:00 31.5 21 Sudoeste 33 Oeste 0 -- -- 26
2017-07-19 13:00:00 30.7 19 Sudoeste 29 Oeste 0 -- -- 29
2017-07-19 12:00:00 29.1 15 Sudoeste 28 Sur 0 -- -- 36
2017-07-19 11:00:00 27.3 13 Sudoeste 22 Sudoeste 0 -- -- 41
2017-07-19 10:00:00 25.7 13 Sudoeste 21 Sudoeste 0 -- -- 44
2017-07-19 09:00:00 24.2 9 Sudoeste 14 Sur 0 -- -- 48
2017-07-19 08:00:00 22.6 0 Calma 8 Sur 0 -- -- 51
2017-07-19 07:00:00 22.7 7 Sudeste 10 Sudeste 0 -- -- 45
2017-07-19 06:00:00 24.3 6 Sur 12 Sudoeste 0 -- -- 40
2017-07-19 05:00:00 24.4 3 Oeste 13 Sudoeste 0 -- -- 43
2017-07-19 04:00:00 25.9 10 Sudoeste 18 Sudoeste 0 -- -- 35
2017-07-19 03:00:00 24.9 9 Sur 14 Sur 0 -- -- 39
2017-07-19 02:00:00 25.7 2 Sur 12 Sudoeste 0 -- -- 43
2017-07-19 01:00:00 27.1 9 Sudoeste 21 Sudeste 0 -- -- 37
2017-07-19 00:00:00 28.3 20 Sudeste 41 Sudeste 0 -- -- 33